Flight Track Log - Related Links

Times and Time Zones

All times are in EDT time to prevent confusion due to time zone crossing. See the SWA208 flight status page for this flight to view local times or setup timezone preferences in your user account.

Time Position Orientation Groundspeed Altitude Reporting Facility
EDT Latitude Longitude Course Direction KTS MPH feet Rate Location/Type
Fri 10:25:05 PM 37.6967 -122.3633 North 210 242 4,700  Level Oakland Center
Fri 10:26:06 PM 37.7222 -122.4314 295° West 265 305 8,000 3,098 Climbing Oakland Center
Fri 10:27:07 PM 37.6439 -122.4606 196° South 301 346 11,000 3,049 Climbing Oakland Center
Fri 10:28:08 PM 37.5458 -122.4769 188° South 348 400 14,200 3,197 Climbing Oakland Center
Fri 10:29:09 PM 37.4422 -122.4931 187° South 369 425 17,500 3,024 Climbing Oakland Center
Fri 10:30:11 PM 37.3344 -122.5103 187° South 387 445 20,400 2,732 Climbing Oakland Center
Fri 10:31:12 PM 37.2200 -122.5294 188° South 408 470 23,100 2,607 Climbing Oakland Center
Fri 10:32:13 PM 37.1117 -122.4756 158° South 435 501 25,700 2,311 Climbing Oakland Center
Fri 10:33:14 PM 37.0108 -122.3875 145° Southeast 442 509 27,800 2,164 Climbing Oakland Center
Fri 10:34:15 PM 36.8853 -122.2786 145° Southeast 458 527 30,100 2,262 Climbing Oakland Center
Fri 10:35:16 PM 36.7808 -122.1869 145° Southeast 461 531 32,400 2,066 Climbing Oakland Center
Fri 10:36:17 PM 36.6758 -122.1003 146° Southeast 457 526 34,300 1,508 Climbing Oakland Center
Fri 10:38:19 PM 36.4689 -121.9228 145° Southeast 452 520 37,000 880 Climbing Oakland Center
Fri 10:39:21 PM 36.3656 -121.8347 146° Southeast 451 519 37,000  Level Oakland Center
Fri 10:40:22 PM 36.2603 -121.7450 145° Southeast 449 517 37,000  Level Oakland Center
Fri 10:41:23 PM 36.1578 -121.6581 146° Southeast 447 514 37,000  Level Oakland Center
Fri 10:42:24 PM 36.0547 -121.5697 145° Southeast 448 516 37,000 689 Level Oakland Center
Fri 10:43:25 PM 35.9531 -121.4842 146° Southeast 443 510 38,400 984 Climbing Oakland Center
Fri 10:44:26 PM 35.8508 -121.3975 145° Southeast 446 513 39,000 295 Climbing Oakland Center
Fri 10:45:27 PM 35.7250 -121.2928 146° Southeast 454 522 39,000  Level Oakland Center
Fri 10:46:29 PM 35.6206 -121.2058 146° Southeast 454 522 39,000  Level Oakland Center
Fri 10:47:30 PM 35.5189 -121.1186 145° Southeast 450 518 39,000  Level Oakland Center
Fri 10:48:39 PM 35.4094 -121.0328 147° Southeast 448 516 39,000  Level Los Angeles Center
Fri 10:49:41 PM 35.3050 -120.9517 148° Southeast 444 511 39,000  Level Los Angeles Center
Fri 10:50:43 PM 35.1806 -120.8547 148° Southeast 442 509 39,000  Level Los Angeles Center
Fri 10:51:45 PM 35.0775 -120.7744 147° Southeast 440 506 39,000  Level Los Angeles Center
Fri 10:52:47 PM 34.9736 -120.6931 147° Southeast 442 509 39,000  Level Los Angeles Center
Fri 10:53:49 PM 34.8700 -120.6128 148° Southeast 441 507 39,000  Level Los Angeles Center
Fri 10:54:50 PM 34.7561 -120.5236 147° Southeast 442 509 39,000  Level Los Angeles Center
Fri 10:55:52 PM 34.6514 -120.4431 148° Southeast 446 513 39,000  Level Los Angeles Center
Fri 10:56:54 PM 34.5469 -120.3639 148° Southeast 444 511 39,000  Level Los Angeles Center
Fri 10:57:57 PM 34.4433 -120.2847 148° Southeast 443 510 39,000  Level Los Angeles Center
Fri 10:59:10 PM 34.3389 -120.2061 148° Southeast 443 510 39,000 -578 Level Los Angeles Center
Fri 11:00:12 PM 34.2217 -120.0806 138° Southeast 456 525 37,700 -1,984 Descending Los Angeles Center
Fri 11:01:14 PM 34.1544 -119.9442 121° Southeast 472 543 34,900 -3,290 Descending Los Angeles Center
Fri 11:02:16 PM 34.0725 -119.7808 121° Southeast 477 549 30,900 -3,387 Descending Los Angeles Center
Fri 11:03:18 PM 34.0033 -119.6447 121° Southeast 477 549 27,900 -2,780 Descending Los Angeles Center
Fri 11:04:19 PM 33.9386 -119.5158 121° Southeast 454 522 25,200 -2,537 Descending Los Angeles Center
Fri 11:05:21 PM 33.8747 -119.3883 121° Southeast 448 516 22,700 -2,419 Descending Los Angeles Center
Fri 11:06:23 PM 33.8153 -119.2683 121° Southeast 422 486 20,200 -2,323 Descending Los Angeles Center
Fri 11:07:25 PM 33.7558 -119.1542 122° Southeast 407 468 17,900 -2,516 Descending Los Angeles Center
Fri 11:08:27 PM 33.6881 -119.0236 122° Southeast 388 447 15,000 -2,565 Descending Los Angeles Center
Fri 11:09:29 PM 33.6342 -118.9169 121° Southeast 378 435 12,600 -2,049 Descending Los Angeles Center
Fri 11:10:30 PM 33.5975 -118.8317 117° Southeast 378 435 10,800 -1,366 Descending Los Angeles Center
Fri 11:11:32 PM 33.5758 -118.7011 101° East 331 381 9,800 -1,065 Descending Los Angeles Center
Fri 11:12:34 PM 33.5850 -118.6003 84° East 307 353 8,600 -1,403 Descending Los Angeles Center
Fri 11:13:36 PM 33.5972 -118.4858 83° East 291 335 6,900 -1,500 Descending Los Angeles Center
Fri 11:14:38 PM 33.6067 -118.3933 83° East 286 329 5,500 -919 Descending Los Angeles Center
Fri 11:15:40 PM 33.6150 -118.3028 84° East 282 325 5,000 -242 Descending Los Angeles Center
Fri 11:16:42 PM 33.6447 -118.2286 64° Northeast 260 299 5,000 -48 Level Los Angeles Center
Fri 11:17:44 PM 33.6733 -118.1578 64° Northeast 245 282 4,900 -632 Descending Los Angeles Center
Fri 11:18:36 PM 33.6667 -118.0833 96° East 229 264 3,800 -1,018 Descending Southern California TRACON
Fri 11:19:36 PM 33.6833 -118.0000 76° East 232 267 3,000 -500 Descending Southern California TRACON
Fri 11:20:36 PM 33.7167 -117.9500 51° Northeast 227 261 2,800 -248 Descending Southern California TRACON
Fri 11:21:37 PM 33.7500 -117.9000 51° Northeast 183 211 2,500 -645 Descending Southern California TRACON
Fri 11:22:37 PM 33.7500 -117.8500 90° East 154 177 1,500 -800 Descending Southern California TRACON
Fri 11:23:37 PM 33.7167 -117.8500 180° South 125 144 900 -632 Descending Southern California TRACON
Fri 11:24:31 PM 33.6833 -117.8667 203° Southwest 133 153 300 -667 Descending Southern California TRACON
Fri 11:27:00 PM 33.6757 -117.8682 203° Southwest  Level Estimated

Login

Don't have an account? Register now (free) for customized features, flight alerts, and more!